Logs for Dick Palmer, Big Bend National Park, TX, USA [DL89ik]
Paging Controls
Date UTC KHz ID Location S/P ITU Region GSQ LSB USB Sec. Fmt. Power KM Miles
2006-09-27 1100 276 TWT 'Tradewater' Sturgis KY USA na EM67al 25 1676 1042
2006-09-27 1050 269 BEX Bloomfield IA USA na EN30sr 25 1593 990
2006-09-27 1041 257 DT 'Pinck' Denton TX USA na EM13jg 25 718 446
2006-09-27 1038 257 BP 'Kazoo' Beaumont / Port Arthur TX USA na EL29wx 887 551
2006-09-27 1034 254 RA 'Ranch' Rapid City SD USA na DN83mx 1617 1005
2006-09-27 1033 256 TQK Scott City KS USA na DM98nl 1029 640
2006-09-27 1028 251 MNZ Hamilton TX USA na EM01wo 25 550 342
2006-09-27 1026 251 YCD Nanaimo BC CAN na CN89bd 500 2798 1739
2006-09-27 1024 250 FO Flin Flon MB CAN na DO94dq 1600 2810 1746
2006-09-27 1018 244 TH Thompson MB CAN na EO15bt 1000 2963 1841
2006-09-27 1015 245 BKD Breckenridge TX USA na EM02nr 25 557 346
2006-09-27 1012 242 XC Cranbrook BC CAN na DN29cq 400 2485 1544
2006-09-27 1005 240 AWC Fort Polk LA USA na EM31ij 983 611
2006-09-27 1003 239 LNC Lancaster TX USA na EM12pn 25 717 445
2006-09-27 1001 239 PWY Hebbronville TX USA na EL07qk 507 315
2006-09-27 0959 241 EZY Elk City OK USA na EM05hk 761 473
2006-09-27 0951 230 RDK Red Oak IA USA na EN21ia 1477 918
2006-09-27 0949 230 PD 'Foris' Pendleton OR USA na DN05pq 400 2252 1399
2006-09-27 0936 218 RL Red Lake ON CAN na EO31cb 1000 2531 1572
2006-09-27 0932 215 BFK Buffalo OK USA na EM06eu 25 892 554
2006-09-27 0927 211 ORG Orange TX USA na EM30cb 919 571
2006-09-27 0920 209 ITR 'Kit Carson' Burlington CO USA na DM89uf 25 1092 679
2006-09-27 0253 215 CSZ 'Crossroads' Athens TX USA na EM22ab 25 759 471
2006-09-27 0249 201 GV 'Major' Greenville TX USA na EM13xd 25 802 499
2006-09-27 0245 524 HRD 'Hardin County' Kountze / Silsbee TX USA na EM20ui 25 873 543
2006-09-27 0244 521 ORC Orange City IA USA na EN12xx 25 1638 1018
2006-09-27 0243 520 IQS Sallisaw OK USA na EM25oj 25 1036 644
2006-09-27 0241 515 PN 'Ponca' Ponca City OK USA na EM16kt 25 1000 622
2006-09-27 0234 423 CKP 'Pilot Rock' Cherokee IA USA na EN22fr 25 1632 1014
2006-09-27 0233 421 EF 'Fluet' Mc Kinney TX USA na EM13qg 763 474
2006-09-27 0229 418 CW 'Mossy' Lake Charles LA USA na EM30jh 25 977 607
2006-09-27 0223 410 OIP 'Old Rip' Eastland TX USA na EM02oj 25 541 336
2006-09-27 0221 407 PRZ Portales NM USA na DM84hd 25 523 325
2006-09-27 0220 407 CO 'Petey' Colorado Springs CO USA na DM78pq 25 1036 644
2006-09-27 0214 397 BWK Bunkie LA USA na EM30vu 1077 669
2006-09-27 0211 391 DDP San Juan / Dorado / Luiz Munoz Marin Intl PR PTR ca FK68tl 2000 3924 2438
2006-09-27 0204 388 SGR 'Hull' Houston TX USA na EL29ep 50 742 461
2006-09-27 0201 388 AM 'Picny' Tampa FL USA na EL87ru 400 2029 1261
2006-09-27 0200 379 LRR 'Allen Parish' Oakdale LA USA na EM30pp 1027 638
2006-09-27 0154 365 ADT Atwood KS USA na DM99lu 1176 731
2006-09-27 0151 362 OWP 'William Pogue' Sand Springs OK USA na EM16we 1005 624
2006-09-27 0133 314 GGU Prague OK USA na EM15pm 25 915 569
2006-09-26 1228 344 FCH 'Chandler' Fressno CA USA na DM06br 400 1741 1082
2006-09-26 1221 284 DPG 'Dugway' Dugway Proving Ground UT USA na DN30me 1483 922
2006-09-26 1216 248 PQF Mesquite TX USA na EM12rt 25 744 462
2006-09-26 1211 512 HMY 'Muldrow' Lexington OK USA na EM15ja 25 844 524
2006-09-26 1209 428 SYW 'Cash' Greenville TX USA na EM12xx 25 794 493
2006-09-26 1206 414 SKX 'Ski' Taos NM USA na DM76dk 25 810 503
2006-09-26 1137 414 ZRG Brophy (Regina) SK CAN na DO70ok 20 2338 1453
2006-09-26 1134 413 YHD Dryden ON CAN na EN39nu 250 2433 1512
2006-09-26 1123 404 MOG Montague CA USA na CN81sr 25 2198 1366
2006-09-26 1122 404 HU 'Saltt' Hutchinson KS USA na EM18ac 25 1082 672
2006-09-26 1121 401 YPO Peawanuck ON CAN na EO74gx 125 3176 1973
2006-09-26 1117 400 QQ Comox BC CAN na CN79ms 2903 1804
2006-09-26 1114 323 HJH Hebron NE USA na EN10ed 25 1297 806
2006-09-26 1039 329 TAD Trinidad CO USA na DM77th 150 881 548
2006-09-25 1223 400 FN 'Colln' Fort Collins / Loveland CO USA na DN70mi 25 1223 760
2006-09-25 1223 400 VQ 'Besaq' Alamosa CO USA na DM77ai 914 568
2006-09-25 1222 394 ENZ Nogales AZ USA na DM41nk 100 760 472
2006-09-25 1221 391 RKP Rockport TX USA na EL18lc 25 627 389
2006-09-25 1219 388 JUG 'Jecca' Seagoville TX USA na EM12rq 25 737 458
2006-09-25 1218 386 SYF St. Francis KS USA na DM99cr 25 1152 716
2006-09-25 1216 379 PUU 'Pulliam' Flagstaff AZ USA na DM45dd 49 1013 630
2006-09-25 1215 371 SOA Sonora TX USA na DM90qn 25 286 177
2006-09-25 1215 373 TF 'Aruba' Pueblo CO USA na DM78tg 987 613
2006-09-25 1153 371 ITU 'Truly' Great Falls MT USA na DN47hi 100 2110 1311
2006-09-25 1151 368 ZP Sandspit BC CAN na CO43ce 3509 2180
2006-09-25 1142 368 AN 'Alamo' San Antonio TX USA na EL09ro 400 460 286
2006-09-25 1142 368 SIR Sinclair WY USA na DN61kt 100 1418 881
2006-09-25 1140 365 FT 'Mufin' Fort Worth TX USA na EM12hv 25 681 423
2006-09-25 1139 365 HQG Hugoton KS USA na DM97hd 25 875 544
2006-09-25 1115 362 CYW Clay Center KS USA na EM19kj 25 1242 772
2006-09-25 1110 359 BO 'Ustik' Boise ID USA na DN13uo 400 1952 1213
2006-09-25 1109 356 ODX Ord NE USA na EN01mo 25 1408 875
2006-09-25 1106 356 PTT Pratt KS USA na EM07pr 25 1014 630
2006-09-25 1104 353 LI 'Lasky' Little Rock AR USA na EM34uq 400 1188 738
2006-09-25 1103 350 OKT Yoakum TX USA na EL19kh 598 371
2006-09-25 1102 350 NY Enderby BC CAN na DO00mp 500 2696 1675
2006-09-25 1056 341 YYU Kapuskasing ON CAN na EN89rl 500 2833 1760
2006-09-25 1054 341 OIN Oberlin KS USA na DM99rt 25 1180 733
2006-09-25 1050 338 MRK 'Molly Ridge' Rayville LA USA na EM42cj 1144 711
2006-09-25 1049 335 YLD Chapleau ON CAN na EN87hs 100 2657 1651
2006-09-25 1048 335 BDX Broadus MT USA na DN75hk 1788 1111
2006-09-25 1044 332 GUO Georgetown TX USA na EM10dq 555 345
2006-09-25 1044 332 QT Thunder Bay ON CAN na EN58gi 1000 2411 1498
2006-09-25 1043 330 GLE Gainesville TX USA na EM13jr 748 465
2006-09-25 1038 329 YHN Hornepayne ON CAN na EN79qf 500 2708 1682
2006-09-25 1028 280 GZV 'Brazos River' Graford TX USA na EM02tw 25 608 378
2006-09-25 1025 278 CEP 'Capitan' Ruidoso NM USA na DM73hl 25 491 305
2006-09-25 1021 272 OJA Weatherford OK USA na EM05pm 801 498
2006-09-25 1021 272 YQA Muskoka ON CAN na FN05ia 400 2723 1692
2006-09-25 1019 263 JSO 'Cherokee Co' Jacksonville TX USA na EM21ju 818 508
2006-09-25 1015 260 AP 'Casse' Denver CO USA na DM79nk 100 1121 697
2006-09-25 0324 284 MXR 'Maxwell' Raton NM USA na DM76rq 814 506
2006-09-25 0321 284 VIV Vivian LA USA na EM22xu 958 595
2006-09-25 0318 260 OUN Norman OK USA na EM15gf 25 845 525
2006-09-25 0315 248 WG Winnipeg MB CAN na EN19hv 250 2328 1447
2006-09-25 0314 216 CLB Wilmington / Carolina Beach NC USA na FM14ac 2443 1518
2006-09-25 0314 247 ILT Isleta NM USA na DM64qx 400 691 429
2006-09-25 0313 214 CHX Choix (Sinaloa) MEX ca DL56ur 575 357
2006-09-25 0309 269 AHX Athens TX USA na EM22cd 25 777 483
2006-09-25 0308 260 AVZ 'Travis' Terrell TX USA na EM12vs 25 769 478
2006-09-24 2123 305 RO 'Topan' Roswell NM USA na DM73si 400 449 279
2006-09-24 1640 382 CR 'Conor' Chorpus Christi TX USA na EL17fu 588 365
2006-09-24 1355 272 LD 'Lubbi' Lubbock TX USA na DM93dp 25 491 305
2006-09-24 1349 239 UBC Ballinger TX USA na EM01aq 25 405 252
2006-09-24 1236 338 RYN 'Ryan' Tucson AZ USA na DM42kd 400 806 501
2006-09-24 1230 266 LLN Levelland TX USA na DM83tn 467 290
2006-09-23 2145 275 GUY Guymon OK USA na DM96fq 25 822 511
2006-09-23 2143 275 PEZ Pleasanton TX USA na EL08rw 464 289
2006-09-23 2136 222 CUW Chihuahua MEX ca DL78an 400 277 172
2006-09-23 1730 412 BWR 'Brewster Co' Alpine TX USA na DM80ek 25 116 72
2006-09-23 1727 385 CPZ 'Chaparrosa Ranch' La Pryor TX USA na DL98xv 25 321 200
2006-09-23 1725 380 BBD Brady TX USA na EM01ie 25 430 267
2006-09-23 1721 359 HHH Devine TX USA na EL09md 25 421 262
2006-09-23 1721 359 SDR Snyder TX USA na DM92mq 25 424 264
2006-09-23 1719 347 TKB 'Kleberg Co' Kingsville TX USA na EL07wo 25 544 338
2006-09-23 1718 344 GNC 'Gaines County' Seminole TX USA na DM82qq 25 367 228
2006-09-23 1717 338 HR 'Sebas' Harlingen TX USA na EL16eh 25 656 408
2006-09-23 1717 341 HRX Hereford TX USA na DM84uu 25 609 379
2006-09-23 1715 338 LSA Lamesa TX USA na DM92bs 25 394 245
2006-09-23 1714 335 DR 'Kotti' Del Rio TX USA na DL99mk 226 140
2006-09-23 1709 332 CZX Crosbyton TX USA na DM93jo 504 313
2006-09-23 1707 329 HMA Hondo TX USA na EL09ji 25 396 246
2006-09-23 1706 326 MA 'Farly' Midland TX USA na DM81ux 400 298 185
2006-09-23 1701 281 UVA Uvalde TX USA na EL09de 25 348 217
2006-09-23 1656 251 AM 'Pande' Amarillo TX USA na DM95cd 400 650 404
2006-09-23 1654 245 ANR Andrews TX USA na DM82ri 332 206
2006-09-23 1653 242 EL 'Valtr' El Paso TX USA na DM61uu 400 393 244
2006-09-23 1509 233 VHN Van Horn TX USA na DM71ob 25 231 144
2006-09-23 1508 206 GLS Galveston TX USA na EL29oi 2000 823 511
2004-09-27 1045 396 PH Inukjuak QC CAN na FO08wk 400 500 3753 2332
2004-09-27 1037 392 BAJ 'Batten' Sterling CO USA na DN80jm 1010 1232 766
2004-09-27 1035 391 MQD 'Mc Dowell Creek' Manhattan KS USA na EM19qc 1035 1236 768
2004-09-27 1023 386 LYO Lyons KS USA na EM08vi 1015 25 1096 681
2004-09-27 1014 385 QV Yorkton SK CAN na DO81rf 400 100 2423 1506
2004-09-27 1012 385 HO 'Hossy' Hot Springs AR USA na EM34jk 1045 50 1101 684
2004-09-27 0926 388 MF 'Missi' Mc Allen TX USA na EL06ug 1030 604 376
2004-09-27 0922 388 OK 'Preso' Preston (Okmulgee) OK USA na EM25as 1050 25 983 611
2004-09-27 0323 385 COM Coleman TX USA na EM01hu 1040 25 461 286
2004-09-27 0323 395 GD Guadalajara (Jalisco) MEX ca DL80jl 950 DA3ID 1000 996 619
2004-09-26 1029 397 CIN Carroll IA USA na EN22ob 1020 25 1597 992
2004-09-26 1024 395 YL Lynn Lake MB CAN na DO96lt 400 1600 3048 1894
2004-09-26 1012 391 RKP Rockport TX USA na EL18lc 1040 25 627 389
2004-09-26 1009 391 BHN 'Buckhorn' Fort Leonard Wood MO USA na EM37wq 1050 1381 858
2004-09-26 0955 396 HDE Holdrege NE USA na EN00hk 1030 25 1273 791
2004-09-26 0950 397 BWK Bunkie LA USA na EM30vu 1055 1077 669
2004-09-26 0945 392 FMZ 'Beklof' Fairmont NE USA na EN10fo 1030 25 1346 837
2004-09-26 0942 391 GXD Nacogdoches TX USA na EM21pp 1020 25 857 533
2004-09-26 0930 385 TKL 'Tikal' Santa Elena Y Flores (Peten) GTM ca EK56bv 1020 1952 1213
2004-09-26 0904 392 PNA 'Wenz' Pinedale WY USA na DN52ct 1050 25 1596 992
2004-09-26 0859 389 LCG Wayne NE USA na EN12mf 1010 1531 951
2004-09-26 0856 388 GLY 'Golden Valley' Clinton MO USA na EM38di 1035 25 1327 824
2004-09-26 0850 388 SGR 'Hull' Houston TX USA na EL29ep 1030 50 742 461
2004-09-26 0847 388 AM 'Picny' Tampa FL USA na EL87ru 400 2029 1261
2004-09-26 0840 385 DR 'Idder' De Ridder LA USA na EM30hs 1050 965 600
2004-09-26 0326 389 CSB 'Harry Strunk' Cambridge NE USA na DN90wh 25 1243 772
2004-09-26 0322 386 SYF St. Francis KS USA na DM99cr 1020 25 1152 716
2004-09-26 0302 396 CQB 'Tilghman' Chandler OK USA na EM15or 1020 927 576
2004-09-25 0218 395 ULS Ulysses KS USA na DM97ho 1020 925 575
2004-09-25 0203 391 DDP San Juan / Dorado / Luiz Munoz Marin Intl PR PTR ca FK68tl 2000 3924 2438
2004-09-25 0201 388 JUG 'Jecca' Seagoville TX USA na EM12rq 1010 25 737 458
2004-09-24 2231 385 CPZ 'Chaparrosa Ranch' La Pryor TX USA na DL98xv 1010 25 321 200
1997-01-14 1030 300 ABL Ambalema (Tolima) CLM sa FJ20os 1000 4388 2727
1997-01-13 0149 400 PIE Piedecuesta / Bucaramanga (Santander) CLM sa FJ36kv 4029 2504